createdAt,value
2018-01-17T00:00:15.422Z,96028.41
2018-01-17T00:02:41.648Z,96020.89
2018-01-17T00:05:07.927Z,96005.16
2018-01-17T00:07:34.289Z,96015.98
2018-01-17T00:10:00.473Z,96010.96
2018-01-17T00:12:26.681Z,96005.19
2018-01-17T00:14:53.674Z,96002.06
2018-01-17T00:17:19.832Z,96004.12
2018-01-17T00:19:45.970Z,96002.64
2018-01-17T00:22:12.142Z,95998.91
2018-01-17T00:24:38.339Z,96002.00
2018-01-17T00:27:04.657Z,96003.25
2018-01-17T00:29:30.831Z,95996.00
2018-01-17T00:31:57.113Z,95986.91
2018-01-17T00:34:23.401Z,95978.55
2018-01-17T00:36:49.570Z,95987.41
2018-01-17T00:39:15.738Z,95978.72
2018-01-17T00:41:41.940Z,95986.13
2018-01-17T00:44:08.110Z,95982.66
2018-01-17T00:46:34.275Z,95977.30
2018-01-17T00:49:01.199Z,95977.89
2018-01-17T00:51:27.484Z,95971.57
2018-01-17T00:53:53.900Z,95963.66
2018-01-17T00:56:20.798Z,95969.91
2018-01-17T00:58:46.956Z,95965.54
2018-01-17T01:01:13.155Z,95958.47
2018-01-17T01:03:39.366Z,95955.97
2018-01-17T01:06:05.545Z,95964.94
2018-01-17T01:08:31.715Z,95954.97
2018-01-17T01:10:57.916Z,95957.42
2018-01-17T01:13:24.262Z,95961.41
2018-01-17T01:15:50.412Z,95959.02
2018-01-17T01:18:16.575Z,95975.36
2018-01-17T01:20:42.842Z,95981.55
2018-01-17T01:23:09.003Z,95982.55
2018-01-17T01:25:35.912Z,95985.77
2018-01-17T01:28:09.068Z,95999.93
2018-01-17T01:30:36.036Z,95986.92
2018-01-17T01:33:02.996Z,95974.38
2018-01-17T01:35:30.275Z,95975.76
2018-01-17T01:37:56.667Z,95966.45
2018-01-17T01:40:22.886Z,95972.31
2018-01-17T01:42:49.411Z,95973.88
2018-01-17T01:48:09.933Z,95973.80
2018-01-17T01:50:39.002Z,95953.40
2018-01-17T01:53:07.272Z,95972.53
2018-01-17T01:55:35.565Z,95955.73
2018-01-17T01:58:03.849Z,95966.12
2018-01-17T02:00:32.132Z,95959.03
2018-01-17T02:03:00.475Z,95956.59
2018-01-17T02:05:29.540Z,95952.87
2018-01-17T02:07:58.594Z,95956.94
2018-01-17T02:10:26.995Z,95946.16
2018-01-17T02:12:56.259Z,95963.13
2018-01-17T02:15:24.599Z,95961.69
2018-01-17T02:17:52.893Z,95954.82
2018-01-17T02:20:21.179Z,95960.82
2018-01-17T02:22:49.422Z,95958.65
2018-01-17T02:25:17.708Z,95957.34
2018-01-17T02:27:45.947Z,95959.67
2018-01-17T02:30:14.252Z,95948.85
2018-01-17T02:32:42.545Z,95945.47
2018-01-17T02:35:10.798Z,95953.83
2018-01-17T02:37:39.926Z,95958.03
2018-01-17T02:43:15.384Z,95951.61
2018-01-17T02:45:43.666Z,95961.16
2018-01-17T02:48:11.900Z,95955.33
2018-01-17T02:50:40.163Z,95952.11
2018-01-17T02:53:09.180Z,95954.23
2018-01-17T02:55:37.444Z,95938.09
2018-01-17T02:58:05.695Z,95943.60
2018-01-17T03:00:33.947Z,95934.61
2018-01-17T03:03:02.190Z,95936.44
2018-01-17T03:05:30.480Z,95934.21
2018-01-17T03:07:58.814Z,95937.92
2018-01-17T03:10:27.903Z,95936.07
2018-01-17T03:12:57.057Z,95941.34
2018-01-17T03:15:25.318Z,95937.80
2018-01-17T03:17:54.347Z,95930.66
2018-01-17T03:20:22.638Z,95936.55
2018-01-17T03:22:51.258Z,95938.83
2018-01-17T03:25:19.505Z,95933.05
2018-01-17T03:27:47.769Z,95941.66
2018-01-17T03:30:16.024Z,95948.56
2018-01-17T03:32:44.315Z,95937.65
2018-01-17T03:35:12.573Z,95948.33
2018-01-17T03:37:40.831Z,95947.83
2018-01-17T03:40:09.843Z,95956.92
2018-01-17T03:42:38.859Z,95953.03
2018-01-17T03:45:07.104Z,95947.20
2018-01-17T03:47:35.363Z,95951.38
2018-01-17T03:50:03.607Z,95951.09
2018-01-17T03:52:32.637Z,95944.56
2018-01-17T03:55:00.917Z,95948.63
2018-01-17T03:57:29.987Z,95933.00
2018-01-17T03:59:58.310Z,95925.97
2018-01-17T04:02:27.413Z,95932.88
2018-01-17T04:04:55.690Z,95931.86
2018-01-17T04:07:23.953Z,95944.34
2018-01-17T04:09:52.193Z,95939.52
2018-01-17T04:12:20.448Z,95968.20
2018-01-17T04:14:48.704Z,95964.20
2018-01-17T04:17:16.971Z,95996.59
2018-01-17T04:19:45.243Z,95995.81
2018-01-17T04:22:14.295Z,95995.11
2018-01-17T04:24:42.548Z,96005.15
2018-01-17T04:27:11.569Z,96023.45
2018-01-17T04:29:39.810Z,96022.36
2018-01-17T04:32:08.075Z,96034.40
2018-01-17T04:34:36.320Z,96036.72
2018-01-17T04:37:04.570Z,96046.94
2018-01-17T04:39:32.819Z,96052.59
2018-01-17T04:42:01.143Z,96050.56
2018-01-17T04:44:29.402Z,96062.48
2018-01-17T04:46:57.688Z,96053.77
2018-01-17T04:49:25.949Z,96054.02
2018-01-17T04:51:54.288Z,96059.11
2018-01-17T04:54:22.537Z,96061.80
2018-01-17T04:56:50.808Z,96067.77
2018-01-17T04:59:19.832Z,96074.13
2018-01-17T05:01:48.083Z,96083.08
2018-01-17T05:04:16.331Z,96080.99
2018-01-17T05:06:44.570Z,96086.67
2018-01-17T05:09:13.606Z,96081.36
2018-01-17T05:11:41.856Z,96089.65
2018-01-17T05:14:10.144Z,96094.64
2018-01-17T05:16:39.207Z,96121.04
2018-01-17T05:19:07.486Z,96125.67
2018-01-17T05:21:35.747Z,96101.08
2018-01-17T05:24:04.015Z,96118.96
2018-01-17T05:26:32.268Z,96112.23
2018-01-17T05:29:00.527Z,96109.73
2018-01-17T05:31:28.767Z,96119.62
2018-01-17T05:33:57.040Z,96127.50
2018-01-17T05:36:25.304Z,96128.89
2018-01-17T05:38:53.571Z,96126.75
2018-01-17T05:41:21.837Z,96135.03
2018-01-17T05:43:50.550Z,96139.26
2018-01-17T05:46:19.669Z,96133.38
2018-01-17T05:48:49.027Z,96132.67
2018-01-17T05:51:17.520Z,96128.45
2018-01-17T05:53:45.785Z,96127.73
2018-01-17T05:56:14.014Z,96114.30
2018-01-17T05:58:42.400Z,96128.00
2018-01-17T06:01:10.652Z,96137.50
2018-01-17T06:03:39.712Z,96145.28
2018-01-17T06:06:08.420Z,96148.39
2018-01-17T06:08:37.724Z,96150.84
2018-01-17T06:11:06.187Z,96153.91
2018-01-17T06:13:34.543Z,96155.91
2018-01-17T06:16:02.803Z,96151.86
2018-01-17T06:18:32.248Z,96152.30
2018-01-17T06:21:00.496Z,96140.41
2018-01-17T06:23:28.800Z,96158.27
2018-01-17T06:25:57.118Z,96144.41
2018-01-17T06:28:25.512Z,96158.56
2018-01-17T06:30:53.793Z,96168.30
2018-01-17T06:33:22.943Z,96179.63
2018-01-17T06:35:51.554Z,96188.48
2018-01-17T06:38:19.991Z,96214.36
2018-01-17T06:40:48.554Z,96213.22
2018-01-17T06:43:17.114Z,96222.45
2018-01-17T06:45:45.654Z,96221.05
2018-01-17T06:48:14.060Z,96224.98
2018-01-17T06:50:43.263Z,96223.86
2018-01-17T06:53:12.558Z,96232.38
2018-01-17T06:55:41.133Z,96274.02
2018-01-17T06:58:09.404Z,96249.97
2018-01-17T07:00:37.796Z,96257.38
2018-01-17T07:03:06.174Z,96263.66
2018-01-17T07:05:35.160Z,96285.22
2018-01-17T07:08:04.196Z,96326.34
2018-01-17T07:10:33.417Z,96304.70
2018-01-17T07:13:01.806Z,96313.36
2018-01-17T07:15:30.305Z,96317.05
2018-01-17T07:17:58.719Z,96318.60
2018-01-17T07:20:27.976Z,96330.56
2018-01-17T07:22:56.448Z,96322.98
2018-01-17T07:25:25.509Z,96333.70
2018-01-17T07:27:54.633Z,96346.14
2018-01-17T07:30:22.960Z,96347.19
2018-01-17T07:32:52.033Z,96355.52
2018-01-17T07:35:21.145Z,96365.41
2018-01-17T07:37:49.459Z,96371.45
2018-01-17T07:40:18.594Z,96375.33
2018-01-17T07:42:46.881Z,96389.75
2018-01-17T07:45:15.312Z,96389.35
2018-01-17T07:47:43.595Z,96410.06
2018-01-17T07:50:11.924Z,96415.98
2018-01-17T07:52:40.425Z,96414.10
2018-01-17T07:55:08.820Z,96421.50
2018-01-17T07:57:37.893Z,96417.39
2018-01-17T08:00:07.014Z,96433.36
2018-01-17T08:02:35.274Z,96426.96
2018-01-17T08:05:03.581Z,96439.62
2018-01-17T08:07:31.923Z,96454.67
2018-01-17T08:10:00.227Z,96446.03
2018-01-17T08:12:28.543Z,96456.70
2018-01-17T08:14:57.073Z,96466.49
2018-01-17T08:17:26.203Z,96465.80
2018-01-17T08:19:54.590Z,96481.80
2018-01-17T08:22:22.937Z,96514.25
2018-01-17T08:24:51.386Z,96497.73
2018-01-17T08:27:19.763Z,96504.31
2018-01-17T08:29:48.787Z,96508.77
2018-01-17T08:32:17.160Z,96514.83
2018-01-17T08:34:46.193Z,96508.03
2018-01-17T08:37:14.469Z,96528.60
2018-01-17T08:39:42.719Z,96533.20
2018-01-17T08:42:11.124Z,96539.16
2018-01-17T08:44:39.409Z,96535.56
2018-01-17T08:47:07.983Z,96539.89
2018-01-17T08:49:36.298Z,96546.77
2018-01-17T08:52:04.772Z,96561.52
2018-01-17T08:54:33.045Z,96579.72
2018-01-17T08:57:01.504Z,96577.77
2018-01-17T08:59:29.939Z,96572.83
2018-01-17T09:01:58.390Z,96573.17
2018-01-17T09:04:26.678Z,96581.30
2018-01-17T09:06:55.000Z,96581.13
2018-01-17T09:09:23.370Z,96592.54
2018-01-17T09:11:51.723Z,96586.87
2018-01-17T09:14:20.003Z,96595.23
2018-01-17T09:16:48.541Z,96603.07
2018-01-17T09:19:17.656Z,96606.00
2018-01-17T09:21:46.316Z,96604.84
2018-01-17T09:24:15.459Z,96614.55
2018-01-17T09:26:43.708Z,96625.94
2018-01-17T09:29:13.346Z,96635.00
2018-01-17T09:31:42.387Z,96661.06
2018-01-17T09:34:10.849Z,96671.97
2018-01-17T09:36:39.978Z,96684.92
2018-01-17T09:39:08.532Z,96685.69
2018-01-17T09:41:36.974Z,96677.69
2018-01-17T09:44:05.656Z,96668.84
2018-01-17T09:46:34.675Z,96631.14
2018-01-17T09:49:03.291Z,96638.57
2018-01-17T09:51:32.063Z,96637.33
2018-01-17T09:54:00.357Z,96628.16
2018-01-17T09:56:28.656Z,96641.66
2018-01-17T09:58:57.455Z,96652.54
2018-01-17T10:01:25.710Z,96659.95
2018-01-17T10:03:55.327Z,96663.31
2018-01-17T10:06:24.338Z,96671.96
2018-01-17T10:08:53.344Z,96675.34
2018-01-17T10:11:23.021Z,96687.00
2018-01-17T10:13:51.437Z,96688.56
2018-01-17T10:16:19.684Z,96700.79
2018-01-17T10:18:48.040Z,96705.44
2018-01-17T10:21:17.081Z,96731.15
2018-01-17T10:23:45.412Z,96732.77
2018-01-17T10:26:14.215Z,96753.53
2018-01-17T10:28:42.470Z,96746.77
2018-01-17T10:31:10.799Z,96742.61
2018-01-17T10:33:39.355Z,96756.87
2018-01-17T10:36:07.594Z,96763.19
2018-01-17T10:38:35.944Z,96756.82
2018-01-17T10:41:04.382Z,96778.03
2018-01-17T10:43:33.455Z,96789.97
2018-01-17T10:46:01.835Z,96786.59
2018-01-17T10:48:30.151Z,96787.50
2018-01-17T10:50:58.541Z,96788.91
2018-01-17T10:53:27.671Z,96790.31
2018-01-17T10:55:56.763Z,96801.88
2018-01-17T10:58:25.801Z,96801.98
2018-01-17T11:00:54.065Z,96799.37
2018-01-17T11:03:22.308Z,96811.14
2018-01-17T11:05:50.574Z,96799.42
2018-01-17T11:08:18.831Z,96801.48
2018-01-17T11:10:47.878Z,96810.04
2018-01-17T11:13:16.240Z,96809.08
2018-01-17T11:15:45.278Z,96809.59
2018-01-17T11:18:13.551Z,96825.97
2018-01-17T11:20:42.720Z,96820.16
2018-01-17T11:23:11.024Z,96822.07
2018-01-17T11:25:40.310Z,96819.75
2018-01-17T11:28:08.630Z,96827.62
2018-01-17T11:30:38.592Z,96837.52
2018-01-17T11:33:06.838Z,96841.64
2018-01-17T11:35:35.846Z,96846.44
2018-01-17T11:38:04.352Z,96863.47
2018-01-17T11:40:33.428Z,96852.09
2018-01-17T11:43:01.679Z,96848.69
2018-01-17T11:45:29.947Z,96853.34
2018-01-17T11:47:58.987Z,96852.66
2018-01-17T11:50:27.303Z,96855.23
2018-01-17T11:52:55.646Z,96859.84
2018-01-17T11:55:24.236Z,96859.21
2018-01-17T11:57:52.484Z,96861.23
2018-01-17T12:00:20.742Z,96867.13
2018-01-17T12:02:48.989Z,96870.34
2018-01-17T12:05:18.020Z,96857.67
2018-01-17T12:07:46.267Z,96891.45
2018-01-17T12:10:14.692Z,96875.23
2018-01-17T12:12:43.920Z,96890.74
2018-01-17T12:15:12.260Z,96901.02
2018-01-17T12:17:40.589Z,96898.98
2018-01-17T12:20:09.014Z,96896.25
2018-01-17T12:22:37.841Z,96897.11
2018-01-17T12:25:06.142Z,96911.48
2018-01-17T12:27:35.368Z,96893.98
2018-01-17T12:30:04.400Z,96924.59
2018-01-17T12:32:32.745Z,96920.12
2018-01-17T12:35:01.092Z,96921.98
2018-01-17T12:37:29.367Z,96922.14
2018-01-17T12:39:57.683Z,96924.63
2018-01-17T12:42:27.170Z,96936.48
2018-01-17T12:44:56.718Z,96932.88
2018-01-17T12:47:25.305Z,96931.67
2018-01-17T12:49:53.653Z,96947.55
2018-01-17T12:52:22.791Z,96936.03
2018-01-17T12:54:51.033Z,96942.22
2018-01-17T12:57:19.343Z,96933.52
2018-01-17T12:59:48.747Z,96929.28
2018-01-17T13:02:17.989Z,96940.56
2018-01-17T13:04:46.267Z,96936.94
2018-01-17T13:07:15.564Z,96957.02
2018-01-17T13:09:44.802Z,96960.82
2018-01-17T13:12:13.103Z,96962.94
2018-01-17T13:14:41.985Z,96954.33
2018-01-17T13:17:10.617Z,96973.82
2018-01-17T13:19:39.232Z,96957.87
2018-01-17T13:22:07.592Z,96957.06
2018-01-17T13:24:36.239Z,96955.75
2018-01-17T13:27:04.753Z,96966.27
2018-01-17T13:29:34.195Z,96963.16
2018-01-17T13:32:03.194Z,96966.13
2018-01-17T13:34:32.001Z,96971.25
2018-01-17T13:37:00.955Z,96972.72
2018-01-17T13:39:29.401Z,96988.29
2018-01-17T13:41:57.937Z,97008.17
2018-01-17T13:44:26.500Z,96987.82
2018-01-17T13:46:55.084Z,96988.91
2018-01-17T13:49:23.823Z,96981.27
2018-01-17T13:51:52.515Z,96991.48
2018-01-17T13:54:21.263Z,96989.05
2018-01-17T13:56:49.816Z,96993.45
2018-01-17T13:59:18.312Z,96991.69
2018-01-17T14:01:46.902Z,96982.57
2018-01-17T14:04:15.771Z,96979.33
2018-01-17T14:06:44.270Z,96988.55
2018-01-17T14:09:12.531Z,96987.98
2018-01-17T14:11:41.964Z,96991.39
2018-01-17T14:14:10.232Z,96987.83
2018-01-17T14:16:39.909Z,96991.73
2018-01-17T14:19:08.405Z,97006.58
2018-01-17T14:21:36.806Z,97020.04
2018-01-17T14:24:05.831Z,97013.45
2018-01-17T14:26:34.278Z,97020.59
2018-01-17T14:29:03.086Z,97021.00
2018-01-17T14:31:31.352Z,97036.17
2018-01-17T14:33:59.972Z,97031.55
2018-01-17T14:36:28.281Z,97033.73
2018-01-17T14:38:56.873Z,97029.23
2018-01-17T14:41:25.216Z,97048.22
2018-01-17T14:43:54.651Z,97054.33
2018-01-17T14:46:22.901Z,97047.52
2018-01-17T14:48:52.472Z,97045.67
2018-01-17T14:51:20.917Z,97049.67
2018-01-17T14:53:50.361Z,97046.02
2018-01-17T14:56:18.932Z,97060.27
2018-01-17T14:58:48.487Z,97068.80
2018-01-17T15:01:17.317Z,97067.20
2018-01-17T15:03:46.824Z,97047.38
2018-01-17T15:06:15.903Z,97070.69
2018-01-17T15:08:44.929Z,97069.27
2018-01-17T15:11:13.566Z,97067.27
2018-01-17T15:13:42.227Z,97060.37
2018-01-17T15:16:10.864Z,97057.33
2018-01-17T15:18:39.330Z,97057.84
2018-01-17T15:21:07.854Z,97057.36
2018-01-17T15:23:36.219Z,97053.92
2018-01-17T15:26:04.781Z,97060.13
2018-01-17T15:28:33.648Z,97066.77
2018-01-17T15:31:03.252Z,97057.05
2018-01-17T15:33:32.475Z,97071.02
2018-01-17T15:36:00.902Z,97085.00
2018-01-17T15:38:29.602Z,97088.36
2018-01-17T15:40:58.014Z,97084.70
2018-01-17T15:43:26.278Z,97077.41
2018-01-17T15:45:54.543Z,97078.83
2018-01-17T15:48:23.666Z,97079.67
2018-01-17T15:50:52.699Z,97077.59
2018-01-17T15:53:21.097Z,97084.84
2018-01-17T15:55:49.737Z,97096.42
2018-01-17T15:58:18.020Z,97097.63
2018-01-17T16:00:46.384Z,97100.50
2018-01-17T16:03:15.712Z,97110.22
2018-01-17T16:05:44.008Z,97117.93
2018-01-17T16:08:12.337Z,97125.59
2018-01-17T16:10:40.870Z,97123.05
2018-01-17T16:13:09.113Z,97132.48
2018-01-17T16:15:38.173Z,97133.09
2018-01-17T16:18:06.493Z,97138.11
2018-01-17T16:20:35.252Z,97152.23
2018-01-17T16:23:03.749Z,97155.25
2018-01-17T16:25:32.428Z,97167.70
2018-01-17T16:28:01.012Z,97190.08
2018-01-17T16:30:29.396Z,97184.94
2018-01-17T16:32:57.670Z,97190.16
2018-01-17T16:35:27.135Z,97188.60
2018-01-17T16:37:55.375Z,97188.23
2018-01-17T16:40:24.615Z,97177.46
2018-01-17T16:42:52.931Z,97189.70
2018-01-17T16:45:21.356Z,97183.88
2018-01-17T16:47:49.790Z,97199.49
2018-01-17T16:50:18.047Z,97187.07
2018-01-17T16:52:47.656Z,97195.20
2018-01-17T16:55:15.948Z,97196.33
2018-01-17T16:57:44.211Z,97191.02
2018-01-17T17:00:12.568Z,97191.15
2018-01-17T17:02:41.336Z,97175.81
2018-01-17T17:05:10.511Z,97177.22
2018-01-17T17:07:38.824Z,97175.61
2018-01-17T17:10:07.063Z,97173.53
2018-01-17T17:12:35.403Z,97172.53
2018-01-17T17:15:03.656Z,97165.56
2018-01-17T17:17:31.921Z,97152.69
2018-01-17T17:20:00.326Z,97153.45
2018-01-17T17:22:28.628Z,97170.11
2018-01-17T17:24:57.202Z,97180.00
2018-01-17T17:27:25.648Z,97151.61
2018-01-17T17:29:53.903Z,97194.70
2018-01-17T17:32:22.156Z,97187.25
2018-01-17T17:34:50.564Z,97201.46
2018-01-17T17:37:18.828Z,97194.55
2018-01-17T17:39:47.980Z,97198.48
2018-01-17T17:42:16.280Z,97189.61
2018-01-17T17:44:44.743Z,97209.92
2018-01-17T17:47:13.079Z,97219.68
2018-01-17T17:49:41.382Z,97220.22
2018-01-17T17:52:10.446Z,97225.69
2018-01-17T17:54:38.691Z,97250.11
2018-01-17T17:57:07.721Z,97266.72
2018-01-17T17:59:35.963Z,97277.78
2018-01-17T18:02:04.269Z,97286.02
2018-01-17T18:04:32.520Z,97282.81
2018-01-17T18:07:00.881Z,97275.86
2018-01-17T18:09:29.121Z,97281.94
2018-01-17T18:11:57.384Z,97285.81
2018-01-17T18:14:25.633Z,97292.13
2018-01-17T18:16:54.697Z,97302.59
2018-01-17T18:19:22.957Z,97303.67
2018-01-17T18:21:51.208Z,97318.52
2018-01-17T18:24:20.238Z,97327.55
2018-01-17T18:26:48.504Z,97339.55
2018-01-17T18:29:17.521Z,97323.33
2018-01-17T18:31:45.798Z,97335.14
2018-01-17T18:34:14.824Z,97345.02
2018-01-17T18:36:43.165Z,97341.85
2018-01-17T18:39:11.442Z,97351.14
2018-01-17T18:41:39.717Z,97341.57
2018-01-17T18:44:08.011Z,97352.50
2018-01-17T18:46:36.256Z,97363.16
2018-01-17T18:49:06.061Z,97361.81
2018-01-17T18:51:34.354Z,97360.94
2018-01-17T18:54:02.584Z,97362.10
2018-01-17T18:56:30.884Z,97368.89
2018-01-17T18:58:59.157Z,97363.70
2018-01-17T19:01:27.403Z,97370.87
2018-01-17T19:03:55.668Z,97370.66
2018-01-17T19:06:23.916Z,97375.80
2018-01-17T19:08:52.182Z,97376.54
2018-01-17T19:11:21.223Z,97379.56
2018-01-17T19:13:49.484Z,97383.88
2018-01-17T19:16:17.744Z,97380.23
2018-01-17T19:18:46.000Z,97387.59
2018-01-17T19:21:14.254Z,97396.37
2018-01-17T19:23:43.290Z,97390.88
2018-01-17T19:26:11.536Z,97403.28
2018-01-17T19:28:40.669Z,97414.03
2018-01-17T19:31:08.958Z,97428.05
2018-01-17T19:33:37.297Z,97417.72
2018-01-17T19:36:05.604Z,97407.80
2018-01-17T19:38:35.407Z,97421.84
2018-01-17T19:41:03.692Z,97418.87
2018-01-17T19:43:32.091Z,97422.71
2018-01-17T19:46:00.368Z,97421.45
2018-01-17T19:48:28.658Z,97418.30
2018-01-17T19:50:57.663Z,97416.52
2018-01-17T19:53:25.943Z,97411.08
2018-01-17T19:55:54.182Z,97421.56
2018-01-17T19:58:23.227Z,97414.57
2018-01-17T20:00:51.506Z,97420.55
2018-01-17T20:03:19.838Z,97423.70
2018-01-17T20:05:48.084Z,97423.27
2018-01-17T20:08:16.332Z,97413.38
2018-01-17T20:10:44.661Z,97421.84
2018-01-17T20:13:12.946Z,97421.12
2018-01-17T20:15:41.265Z,97421.21
2018-01-17T20:18:09.545Z,97423.88
2018-01-17T20:20:37.807Z,97424.09
2018-01-17T20:23:07.921Z,97430.16
2018-01-17T20:25:36.210Z,97429.83
2018-01-17T20:28:04.575Z,97425.91
2018-01-17T20:30:32.975Z,97440.61
2018-01-17T20:33:02.074Z,97447.77
2018-01-17T20:35:30.391Z,97448.23
2018-01-17T20:37:59.428Z,97443.31
2018-01-17T20:40:27.688Z,97454.31
2018-01-17T20:42:56.706Z,97452.66
2018-01-17T20:45:25.030Z,97458.01
2018-01-17T20:47:53.274Z,97463.66
2018-01-17T20:50:22.320Z,97463.98
2018-01-17T20:52:51.326Z,97454.04
2018-01-17T20:55:19.630Z,97464.06
2018-01-17T20:57:47.863Z,97464.63
2018-01-17T21:00:16.900Z,97461.57
2018-01-17T21:02:45.148Z,97466.38
2018-01-17T21:05:13.405Z,97462.65
2018-01-17T21:07:41.661Z,97465.09
2018-01-17T21:10:09.981Z,97472.20
2018-01-17T21:12:38.227Z,97478.06
2018-01-17T21:15:07.317Z,97479.05
2018-01-17T21:17:35.587Z,97477.23
2018-01-17T21:20:03.885Z,97484.92
2018-01-17T21:22:32.260Z,97476.42
2018-01-17T21:25:00.524Z,97478.16
2018-01-17T21:27:28.822Z,97475.12
2018-01-17T21:29:57.080Z,97478.78
2018-01-17T21:32:25.331Z,97462.69
2018-01-17T21:34:53.669Z,97465.30
2018-01-17T21:37:21.954Z,97463.25
2018-01-17T21:39:50.199Z,97473.45
2018-01-17T21:42:23.916Z,97470.30
2018-01-17T21:44:57.617Z,97474.95
2018-01-17T21:47:25.928Z,97473.81
2018-01-17T21:49:54.206Z,97472.08
2018-01-17T21:52:22.508Z,97467.22
2018-01-17T21:54:51.552Z,97470.16
2018-01-17T21:57:19.847Z,97470.63
2018-01-17T21:59:48.141Z,97468.91
2018-01-17T22:02:16.434Z,97470.11
2018-01-17T22:04:44.672Z,97481.20
2018-01-17T22:07:14.086Z,97486.02
2018-01-17T22:09:42.319Z,97479.35
2018-01-17T22:12:10.580Z,97492.98
2018-01-17T22:14:39.597Z,97491.23
2018-01-17T22:17:07.859Z,97503.78
2018-01-17T22:19:36.910Z,97502.18
2018-01-17T22:22:05.289Z,97504.08
2018-01-17T22:24:34.372Z,97504.78
2018-01-17T22:27:03.454Z,97495.38
2018-01-17T22:29:31.755Z,97493.45
2018-01-17T22:32:00.179Z,97492.82
2018-01-17T22:34:28.423Z,97496.76
2018-01-17T22:36:56.732Z,97496.31
2018-01-17T22:39:25.031Z,97502.74
2018-01-17T22:41:54.099Z,97500.16
2018-01-17T22:44:22.389Z,97495.67
2018-01-17T22:46:50.675Z,97492.83
2018-01-17T22:49:18.931Z,97495.67
2018-01-17T22:51:47.191Z,97493.32
2018-01-17T22:54:16.206Z,97503.00
2018-01-17T22:56:45.985Z,97494.00
2018-01-17T22:59:14.324Z,97500.78
2018-01-17T23:01:43.378Z,97492.27
2018-01-17T23:04:11.631Z,97494.80
2018-01-17T23:06:39.920Z,97498.42
2018-01-17T23:09:08.164Z,97500.14
2018-01-17T23:11:36.441Z,97502.45
2018-01-17T23:14:04.746Z,97506.70
2018-01-17T23:16:33.842Z,97511.53
2018-01-17T23:19:02.220Z,97509.16
2018-01-17T23:21:31.295Z,97500.63
2018-01-17T23:23:59.564Z,97489.91
2018-01-17T23:26:28.579Z,97501.45
2018-01-17T23:28:56.834Z,97489.06
2018-01-17T23:31:25.074Z,97492.38
2018-01-17T23:33:53.345Z,97505.72
2018-01-17T23:36:22.371Z,97496.84
2018-01-17T23:38:50.683Z,97490.39
2018-01-17T23:41:18.926Z,97483.83
2018-01-17T23:43:47.942Z,97480.30
2018-01-17T23:46:16.196Z,97476.67
2018-01-17T23:48:44.447Z,97474.06
2018-01-17T23:51:12.679Z,97469.03
2018-01-17T23:53:40.947Z,97476.90
2018-01-17T23:56:09.183Z,97473.37
2018-01-17T23:58:38.215Z,97467.31
